Time;durP1;ratioP1;P1;durP2;ratioP2;P2;SDS_P1;SDS_P2;PMS_P1;PMS_P2;Temp;Humidity;BMP_temperature;BMP_pressure;BME280_temperature;BME280_humidity;BME280_pressure;Samples;Min_cycle;Max_cycle;Signal;HPM_P1;HPM_P2
2023/08/20 00:01:17;;;;;;;;;;;24.10;70.80;;;;;;5095642;28;19928;-61
2023/08/20 00:03:46;;;;;;;;;;;24.10;70.80;;;;;;5094699;27;19972;-61
2023/08/20 00:06:13;;;;;;;;;;;24.10;70.80;;;;;;5091366;28;19958;-60
2023/08/20 00:08:39;;;;;;;;;;;24.10;70.70;;;;;;5096935;27;19924;-60
2023/08/20 00:11:06;;;;;;;;;;;24.00;70.50;;;;;;5094791;28;19934;-60
2023/08/20 00:13:33;;;;;;;;;;;24.00;70.50;;;;;;5111016;28;19930;-60
2023/08/20 00:16:00;;;;;;;;;;;24.00;70.50;;;;;;5095867;28;19920;-61
2023/08/20 00:18:28;;;;;;;;;;;24.10;70.60;;;;;;5096258;28;19980;-60
2023/08/20 00:20:55;;;;;;;;;;;24.10;70.50;;;;;;5098700;27;19928;-61
2023/08/20 00:23:22;;;;;;;;;;;24.10;70.50;;;;;;5091534;28;19931;-61
2023/08/20 00:25:49;;;;;;;;;;;24.10;70.40;;;;;;5096188;28;19976;-60
2023/08/20 00:28:16;;;;;;;;;;;24.00;70.20;;;;;;5113767;27;19969;-61
2023/08/20 00:30:42;;;;;;;;;;;24.10;70.30;;;;;;5096626;27;19923;-61
2023/08/20 00:33:09;;;;;;;;;;;24.00;70.20;;;;;;5095988;28;19931;-60
2023/08/20 00:35:38;;;;;;;;;;;24.00;70.20;;;;;;5111274;27;19935;-60
2023/08/20 00:38:04;;;;;;;;;;;24.00;70.20;;;;;;5095167;28;19920;-61
2023/08/20 00:40:31;;;;;;;;;;;24.00;70.20;;;;;;5097125;27;20363;-60
2023/08/20 00:42:58;;;;;;;;;;;24.10;70.30;;;;;;5097712;27;19935;-61
2023/08/20 00:45:25;;;;;;;;;;;24.00;70.10;;;;;;5093565;28;19928;-61
2023/08/20 00:47:51;;;;;;;;;;;24.00;70.10;;;;;;5097620;27;19924;-60
2023/08/20 00:50:18;;;;;;;;;;;24.00;70.10;;;;;;5097006;28;19955;-61
2023/08/20 00:52:47;;;;;;;;;;;24.00;70.00;;;;;;5090496;28;19931;-60
2023/08/20 00:55:14;;;;;;;;;;;24.00;70.00;;;;;;5094166;28;20025;-61
2023/08/20 00:57:41;;;;;;;;;;;24.00;70.00;;;;;;5096517;28;19993;-60
2023/08/20 01:00:08;;;;;;;;;;;24.00;70.00;;;;;;5095008;28;19935;-60
2023/08/20 01:02:35;;;;;;;;;;;24.10;70.00;;;;;;5093092;28;20031;-60
2023/08/20 01:05:02;;;;;;;;;;;24.00;69.90;;;;;;5094793;28;19968;-61
2023/08/20 01:07:31;;;;;;;;;;;24.10;70.00;;;;;;5089844;28;19923;-60
2023/08/20 01:10:02;;;;;;;;;;;24.00;69.90;;;;;;5091618;27;19935;-61
2023/08/20 01:12:29;;;;;;;;;;;24.00;69.80;;;;;;5118111;27;19924;-60
2023/08/20 01:14:56;;;;;;;;;;;24.00;69.90;;;;;;5089398;28;20433;-61
2023/08/20 01:17:22;;;;;;;;;;;24.00;69.80;;;;;;5111727;27;19976;-61
2023/08/20 01:19:49;;;;;;;;;;;24.00;69.70;;;;;;5112558;28;19928;-61
2023/08/20 01:22:22;;;;;;;;;;;24.00;69.70;;;;;;5092342;28;19931;-61
2023/08/20 01:24:54;;;;;;;;;;;24.00;70.40;;;;;;5117464;27;20017;-61
2023/08/20 01:27:27;;;;;;;;;;;24.00;69.60;;;;;;5116399;27;19928;-61
2023/08/20 01:29:55;;;;;;;;;;;24.00;69.60;;;;;;5118513;27;19927;-61
2023/08/20 01:32:22;;;;;;;;;;;24.00;69.60;;;;;;5117838;27;19927;-61
2023/08/20 01:34:49;;;;;;;;;;;24.00;69.50;;;;;;5102455;27;19984;-61
2023/08/20 01:37:16;;;;;;;;;;;24.00;69.40;;;;;;5100191;28;19928;-61
2023/08/20 01:39:43;;;;;;;;;;;24.00;69.40;;;;;;5101798;28;19954;-61
2023/08/20 01:42:09;;;;;;;;;;;24.00;69.40;;;;;;5099416;28;19946;-61
2023/08/20 01:44:37;;;;;;;;;;;24.00;69.30;;;;;;5095782;28;19924;-61
2023/08/20 01:47:05;;;;;;;;;;;24.00;69.20;;;;;;5120485;27;19927;-62
2023/08/20 01:49:32;;;;;;;;;;;24.00;69.20;;;;;;5094324;28;19931;-61
2023/08/20 01:51:58;;;;;;;;;;;24.00;69.20;;;;;;5096828;28;19928;-61
2023/08/20 01:54:26;;;;;;;;;;;24.00;69.20;;;;;;5093420;28;19931;-61
2023/08/20 01:56:52;;;;;;;;;;;24.00;69.10;;;;;;5090246;28;19932;-61
2023/08/20 01:59:19;;;;;;;;;;;24.00;69.10;;;;;;5094565;28;19924;-61
2023/08/20 02:01:46;;;;;;;;;;;24.00;69.10;;;;;;5103397;28;19924;-60
2023/08/20 02:04:14;;;;;;;;;;;24.00;69.10;;;;;;5092213;28;19946;-61
2023/08/20 02:06:41;;;;;;;;;;;24.00;69.00;;;;;;5096868;28;19936;-61
2023/08/20 02:09:07;;;;;;;;;;;24.00;68.90;;;;;;5103560;28;19927;-61
2023/08/20 02:11:35;;;;;;;;;;;24.00;69.00;;;;;;5095019;28;20285;-61
2023/08/20 02:14:02;;;;;;;;;;;24.00;68.80;;;;;;5103969;28;19923;-61
2023/08/20 02:16:29;;;;;;;;;;;24.00;68.90;;;;;;5097358;28;19924;-61
2023/08/20 02:18:56;;;;;;;;;;;24.00;68.80;;;;;;5107486;28;19923;-61
2023/08/20 02:21:24;;;;;;;;;;;24.00;68.70;;;;;;5115784;28;19924;-61
2023/08/20 02:23:51;;;;;;;;;;;23.90;68.60;;;;;;5093906;28;19923;-61
2023/08/20 02:26:17;;;;;;;;;;;24.00;68.60;;;;;;5118655;28;19976;-60
2023/08/20 02:28:44;;;;;;;;;;;24.00;68.50;;;;;;5125685;27;20018;-60
2023/08/20 02:31:11;;;;;;;;;;;23.90;68.40;;;;;;5078328;28;19931;-60
2023/08/20 02:33:38;;;;;;;;;;;23.90;68.40;;;;;;5094111;28;19988;-60
2023/08/20 02:36:05;;;;;;;;;;;23.90;68.40;;;;;;5100369;27;19930;-60
2023/08/20 02:38:33;;;;;;;;;;;23.90;68.30;;;;;;5104849;27;20269;-60
2023/08/20 02:41:00;;;;;;;;;;;23.90;68.30;;;;;;5093429;28;19992;-60
2023/08/20 02:43:26;;;;;;;;;;;23.90;68.30;;;;;;5110847;27;19928;-60
2023/08/20 02:45:53;;;;;;;;;;;24.00;68.30;;;;;;5096297;27;20281;-60
2023/08/20 02:48:20;;;;;;;;;;;23.90;68.20;;;;;;5106493;27;19936;-60
2023/08/20 02:50:47;;;;;;;;;;;23.90;68.10;;;;;;5115622;27;20250;-60
2023/08/20 02:53:13;;;;;;;;;;;23.90;68.10;;;;;;5098271;28;19928;-61
2023/08/20 02:55:42;;;;;;;;;;;23.90;68.10;;;;;;5105537;28;19931;-61
2023/08/20 02:58:09;;;;;;;;;;;23.90;68.00;;;;;;5103088;27;19934;-61
2023/08/20 03:00:36;;;;;;;;;;;23.90;68.00;;;;;;5097401;28;19924;-61
2023/08/20 03:03:05;;;;;;;;;;;23.90;68.00;;;;;;5117295;27;19931;-62
2023/08/20 03:05:33;;;;;;;;;;;23.90;67.90;;;;;;5112401;27;23426;-62
2023/08/20 03:08:00;;;;;;;;;;;23.90;67.80;;;;;;5110872;27;19976;-61
2023/08/20 03:10:27;;;;;;;;;;;23.90;67.80;;;;;;5096761;28;19928;-62
2023/08/20 03:12:55;;;;;;;;;;;23.90;67.80;;;;;;5100102;27;19923;-61
2023/08/20 03:15:22;;;;;;;;;;;23.90;67.70;;;;;;5100645;27;19923;-61
2023/08/20 03:17:49;;;;;;;;;;;23.90;67.70;;;;;;5097922;28;19935;-61
2023/08/20 03:20:16;;;;;;;;;;;23.90;67.60;;;;;;5096407;28;19931;-62
2023/08/20 03:22:42;;;;;;;;;;;23.90;67.60;;;;;;5099797;27;19927;-61
2023/08/20 03:25:09;;;;;;;;;;;23.90;67.60;;;;;;5123230;27;19931;-61
2023/08/20 03:27:36;;;;;;;;;;;23.90;67.50;;;;;;5118175;27;20004;-61
2023/08/20 03:30:05;;;;;;;;;;;23.90;67.50;;;;;;5126498;27;20361;-61
2023/08/20 03:32:31;;;;;;;;;;;23.90;67.40;;;;;;5119094;27;19945;-61
2023/08/20 03:34:59;;;;;;;;;;;23.90;67.40;;;;;;5095733;28;20397;-62
2023/08/20 03:37:25;;;;;;;;;;;23.90;67.30;;;;;;5117472;27;19923;-61
2023/08/20 03:39:52;;;;;;;;;;;23.90;67.40;;;;;;5100962;27;19923;-61
2023/08/20 03:42:19;;;;;;;;;;;23.90;67.30;;;;;;5119702;27;19984;-61
2023/08/20 03:44:45;;;;;;;;;;;23.90;67.30;;;;;;5096249;27;19930;-62
2023/08/20 03:47:15;;;;;;;;;;;23.90;67.30;;;;;;5096109;28;19924;-61
2023/08/20 03:49:42;;;;;;;;;;;23.90;67.20;;;;;;5110072;28;19924;-62
2023/08/20 03:52:08;;;;;;;;;;;23.90;67.20;;;;;;5107361;27;19928;-62
2023/08/20 03:54:35;;;;;;;;;;;23.80;67.00;;;;;;5097700;27;19940;-62
2023/08/20 03:57:02;;;;;;;;;;;23.80;67.00;;;;;;5112267;27;20289;-61
2023/08/20 03:59:29;;;;;;;;;;;23.80;67.00;;;;;;5106169;28;19924;-62
2023/08/20 04:01:56;;;;;;;;;;;23.80;67.00;;;;;;5119146;27;20627;-61
2023/08/20 04:04:24;;;;;;;;;;;23.80;67.00;;;;;;5117719;27;20476;-59
2023/08/20 04:06:51;;;;;;;;;;;23.80;66.90;;;;;;5099712;27;19980;-59
2023/08/20 04:09:17;;;;;;;;;;;23.80;66.90;;;;;;5097741;28;19967;-59
2023/08/20 04:11:44;;;;;;;;;;;23.90;67.00;;;;;;5121844;27;19924;-59
2023/08/20 04:14:11;;;;;;;;;;;23.80;66.90;;;;;;5095666;28;19973;-60
2023/08/20 04:16:38;;;;;;;;;;;23.90;67.00;;;;;;5103518;27;19973;-60
2023/08/20 04:19:04;;;;;;;;;;;23.80;66.90;;;;;;5097603;28;19973;-59
2023/08/20 04:21:33;;;;;;;;;;;23.80;67.60;;;;;;5099424;28;19923;-60
2023/08/20 04:23:59;;;;;;;;;;;23.80;66.90;;;;;;5101595;27;19993;-60
2023/08/20 04:26:26;;;;;;;;;;;23.80;66.80;;;;;;5114734;27;20289;-61
2023/08/20 04:28:53;;;;;;;;;;;23.80;66.80;;;;;;5113988;27;19981;-60
2023/08/20 04:31:20;;;;;;;;;;;23.80;66.70;;;;;;5094020;28;19981;-60
2023/08/20 04:33:47;;;;;;;;;;;23.80;66.70;;;;;;5088878;28;19932;-60
2023/08/20 04:36:13;;;;;;;;;;;23.80;66.70;;;;;;5093910;28;19928;-61
2023/08/20 04:38:41;;;;;;;;;;;23.80;66.70;;;;;;5095036;28;19927;-60
2023/08/20 04:41:08;;;;;;;;;;;23.80;66.70;;;;;;5094489;28;19965;-60
2023/08/20 04:43:36;;;;;;;;;;;23.80;66.60;;;;;;5087438;28;19973;-59
2023/08/20 04:46:02;;;;;;;;;;;23.80;66.60;;;;;;5116884;27;19923;-60
2023/08/20 04:48:32;;;;;;;;;;;23.80;66.60;;;;;;5098479;27;19924;-60
2023/08/20 04:51:00;;;;;;;;;;;23.80;66.60;;;;;;5118237;27;19955;-60
2023/08/20 04:53:27;;;;;;;;;;;23.80;66.60;;;;;;5098527;28;19955;-60
2023/08/20 04:55:55;;;;;;;;;;;23.80;66.60;;;;;;5096320;28;19941;-61
2023/08/20 04:58:21;;;;;;;;;;;23.80;66.50;;;;;;5112360;27;19923;-60
2023/08/20 05:00:48;;;;;;;;;;;23.80;66.40;;;;;;5100424;27;19932;-61
2023/08/20 05:03:15;;;;;;;;;;;23.80;66.40;;;;;;5102967;28;19969;-60
2023/08/20 05:05:42;;;;;;;;;;;23.80;66.40;;;;;;5093660;28;19923;-60
2023/08/20 05:08:09;;;;;;;;;;;23.80;66.50;;;;;;5096230;28;19953;-61
2023/08/20 05:10:36;;;;;;;;;;;23.80;66.40;;;;;;5122754;27;19969;-60
2023/08/20 05:13:05;;;;;;;;;;;23.80;66.40;;;;;;5088602;28;19981;-60
2023/08/20 05:15:32;;;;;;;;;;;23.80;66.40;;;;;;5090531;28;19928;-60
2023/08/20 05:17:59;;;;;;;;;;;23.80;66.60;;;;;;5095477;28;20319;-60
2023/08/20 05:20:25;;;;;;;;;;;23.80;66.30;;;;;;5095899;28;19973;-60
2023/08/20 05:22:52;;;;;;;;;;;23.80;66.30;;;;;;5123236;27;19927;-60
2023/08/20 05:25:19;;;;;;;;;;;23.80;66.40;;;;;;5103351;27;19952;-60
2023/08/20 05:27:46;;;;;;;;;;;23.80;66.30;;;;;;5095532;28;19954;-60
2023/08/20 05:30:14;;;;;;;;;;;23.80;66.30;;;;;;5100461;27;19928;-60
2023/08/20 05:32:41;;;;;;;;;;;23.80;66.30;;;;;;5097715;27;19932;-60
2023/08/20 05:35:08;;;;;;;;;;;23.80;66.30;;;;;;5122256;27;19965;-60
2023/08/20 05:37:35;;;;;;;;;;;23.80;66.30;;;;;;5103714;27;19976;-60
2023/08/20 05:40:02;;;;;;;;;;;23.80;66.30;;;;;;5099244;28;20389;-61
2023/08/20 05:42:29;;;;;;;;;;;23.80;66.30;;;;;;5111287;28;19937;-59
2023/08/20 05:44:56;;;;;;;;;;;23.80;66.30;;;;;;5077500;28;19923;-59
2023/08/20 05:47:24;;;;;;;;;;;23.80;66.30;;;;;;5097723;28;20547;-60
2023/08/20 05:49:51;;;;;;;;;;;23.80;66.30;;;;;;5089327;28;20380;-60
2023/08/20 05:52:18;;;;;;;;;;;23.80;66.20;;;;;;5113993;28;19924;-60
2023/08/20 05:54:44;;;;;;;;;;;23.80;66.20;;;;;;5092656;28;20264;-60
2023/08/20 05:57:12;;;;;;;;;;;23.80;66.10;;;;;;5098348;28;19928;-60
2023/08/20 05:59:39;;;;;;;;;;;23.80;66.10;;;;;;5100654;28;19934;-60
2023/08/20 06:02:06;;;;;;;;;;;23.80;66.10;;;;;;5092441;28;19923;-60
2023/08/20 06:04:34;;;;;;;;;;;23.80;66.10;;;;;;5095546;28;19977;-61
2023/08/20 06:07:01;;;;;;;;;;;23.80;66.80;;;;;;5110634;28;19928;-61
2023/08/20 06:09:28;;;;;;;;;;;23.80;66.10;;;;;;5097169;28;19969;-61
2023/08/20 06:11:54;;;;;;;;;;;23.80;66.10;;;;;;5119804;27;19960;-60
2023/08/20 06:14:21;;;;;;;;;;;23.80;66.10;;;;;;5121362;27;19934;-61
2023/08/20 06:16:48;;;;;;;;;;;23.80;66.20;;;;;;5113408;27;19923;-60
2023/08/20 06:19:15;;;;;;;;;;;23.80;66.20;;;;;;5095635;28;19927;-60
2023/08/20 06:21:43;;;;;;;;;;;23.80;66.20;;;;;;5114129;27;19935;-60
2023/08/20 06:24:10;;;;;;;;;;;23.80;66.20;;;;;;5100252;28;19927;-61
2023/08/20 06:26:36;;;;;;;;;;;23.80;66.20;;;;;;5099025;27;19976;-61
2023/08/20 06:29:03;;;;;;;;;;;23.80;66.30;;;;;;5101994;27;19924;-60
2023/08/20 06:31:30;;;;;;;;;;;23.80;66.30;;;;;;5096854;27;19924;-61
2023/08/20 06:33:57;;;;;;;;;;;23.80;66.30;;;;;;5103663;28;20335;-61
2023/08/20 06:36:23;;;;;;;;;;;23.80;66.30;;;;;;5105154;28;19924;-61
2023/08/20 06:38:52;;;;;;;;;;;23.80;66.30;;;;;;5100938;27;20265;-61
2023/08/20 06:41:18;;;;;;;;;;;23.80;66.40;;;;;;5099047;28;19931;-61
2023/08/20 06:43:45;;;;;;;;;;;23.80;66.40;;;;;;5100905;27;19924;-61
2023/08/20 06:46:12;;;;;;;;;;;23.80;66.50;;;;;;5097959;28;20427;-61
2023/08/20 06:48:39;;;;;;;;;;;23.80;66.40;;;;;;5099156;27;19931;-61
2023/08/20 06:51:09;;;;;;;;;;;23.80;66.50;;;;;;5098878;28;19974;-61
2023/08/20 06:53:36;;;;;;;;;;;23.80;66.50;;;;;;5117236;27;19931;-61
2023/08/20 06:56:05;;;;;;;;;;;23.80;66.50;;;;;;5102100;28;19935;-60
2023/08/20 06:58:31;;;;;;;;;;;23.80;66.60;;;;;;5115417;27;19923;-60
2023/08/20 07:01:06;;;;;;;;;;;23.80;66.60;;;;;;5103771;27;19928;-61
2023/08/20 07:03:33;;;;;;;;;;;23.80;66.60;;;;;;5094640;27;19924;-60
2023/08/20 07:06:00;;;;;;;;;;;23.80;66.70;;;;;;5127383;27;19931;-60
2023/08/20 07:08:27;;;;;;;;;;;23.80;66.70;;;;;;5097056;28;19924;-61
2023/08/20 07:10:54;;;;;;;;;;;23.80;66.70;;;;;;5123443;27;19923;-60
2023/08/20 07:13:22;;;;;;;;;;;23.80;66.80;;;;;;5101029;28;19989;-61
2023/08/20 07:15:49;;;;;;;;;;;23.80;67.50;;;;;;5108925;27;19973;-60
2023/08/20 07:18:16;;;;;;;;;;;23.80;66.80;;;;;;5101557;28;19947;-60
2023/08/20 07:20:43;;;;;;;;;;;23.80;66.90;;;;;;5099271;27;19967;-60
2023/08/20 07:23:09;;;;;;;;;;;23.80;66.90;;;;;;5095175;28;20000;-60
2023/08/20 07:25:37;;;;;;;;;;;23.80;66.90;;;;;;5093710;27;19959;-60
2023/08/20 07:28:04;;;;;;;;;;;23.80;66.90;;;;;;5094505;28;20628;-60
2023/08/20 07:30:32;;;;;;;;;;;23.80;66.90;;;;;;5110905;27;19924;-60
2023/08/20 07:32:59;;;;;;;;;;;23.90;67.10;;;;;;5093504;28;19924;-60
2023/08/20 07:35:25;;;;;;;;;;;23.90;67.10;;;;;;5113590;27;19980;-60
2023/08/20 07:37:52;;;;;;;;;;;23.90;67.10;;;;;;5097957;28;20012;-60
2023/08/20 07:40:19;;;;;;;;;;;23.80;67.10;;;;;;5095036;28;19973;-60
2023/08/20 07:42:46;;;;;;;;;;;23.80;67.10;;;;;;5093961;28;20505;-61
2023/08/20 07:45:13;;;;;;;;;;;23.90;67.20;;;;;;5090245;28;19932;-60
2023/08/20 07:47:41;;;;;;;;;;;23.80;67.20;;;;;;5098438;27;19970;-61
2023/08/20 07:50:08;;;;;;;;;;;23.80;67.20;;;;;;5111608;27;19936;-61
2023/08/20 07:52:34;;;;;;;;;;;23.80;67.20;;;;;;5095550;28;19949;-61
2023/08/20 07:55:01;;;;;;;;;;;23.80;67.20;;;;;;5095125;28;19928;-61
2023/08/20 07:57:28;;;;;;;;;;;23.80;67.30;;;;;;5122617;27;19923;-61
2023/08/20 07:59:55;;;;;;;;;;;23.80;67.30;;;;;;5116303;27;19928;-61
2023/08/20 08:02:22;;;;;;;;;;;23.90;67.50;;;;;;5105992;28;19928;-61
2023/08/20 08:04:50;;;;;;;;;;;23.80;67.40;;;;;;5095547;27;19969;-61
2023/08/20 08:07:17;;;;;;;;;;;23.80;67.40;;;;;;5098187;28;19935;-61
2023/08/20 08:09:45;;;;;;;;;;;23.80;67.40;;;;;;5095643;28;19932;-61
2023/08/20 08:12:12;;;;;;;;;;;23.90;67.50;;;;;;5096866;28;19981;-61
2023/08/20 08:14:38;;;;;;;;;;;23.80;67.40;;;;;;5095735;27;19924;-60
2023/08/20 08:17:05;;;;;;;;;;;23.90;67.60;;;;;;5119748;27;19930;-60
2023/08/20 08:19:32;;;;;;;;;;;23.90;67.60;;;;;;5089421;27;20507;-61
2023/08/20 08:22:01;;;;;;;;;;;23.90;67.60;;;;;;5098617;27;19923;-61
2023/08/20 08:24:28;;;;;;;;;;;23.90;67.60;;;;;;5094102;28;19924;-61
2023/08/20 08:26:54;;;;;;;;;;;23.90;67.60;;;;;;5094665;28;20361;-61
2023/08/20 08:29:21;;;;;;;;;;;23.90;67.60;;;;;;5112641;27;19984;-61
2023/08/20 08:31:48;;;;;;;;;;;23.90;67.60;;;;;;5115440;27;19928;-61
2023/08/20 08:34:15;;;;;;;;;;;23.90;67.60;;;;;;5092054;28;19939;-61
2023/08/20 08:36:42;;;;;;;;;;;23.90;67.50;;;;;;5093717;27;19981;-61
2023/08/20 08:39:10;;;;;;;;;;;23.90;67.50;;;;;;5089321;28;19934;-61
2023/08/20 08:41:37;;;;;;;;;;;23.90;67.50;;;;;;5110326;28;19924;-61
2023/08/20 08:44:04;;;;;;;;;;;23.90;67.40;;;;;;5110988;27;19931;-61
2023/08/20 08:46:30;;;;;;;;;;;23.90;67.30;;;;;;5118605;27;19924;-61
2023/08/20 08:48:57;;;;;;;;;;;23.90;67.20;;;;;;5091333;28;19981;-61
2023/08/20 08:51:24;;;;;;;;;;;23.90;67.20;;;;;;5111847;27;19927;-61
2023/08/20 08:53:51;;;;;;;;;;;23.90;67.20;;;;;;5094684;28;19923;-60
2023/08/20 08:56:19;;;;;;;;;;;23.90;67.00;;;;;;5111282;27;19923;-61
2023/08/20 08:58:45;;;;;;;;;;;23.90;66.90;;;;;;5094825;27;19924;-60
2023/08/20 09:01:12;;;;;;;;;;;23.90;66.90;;;;;;5093953;28;19931;-61
2023/08/20 09:03:39;;;;;;;;;;;23.90;66.90;;;;;;5100950;27;20360;-60
2023/08/20 09:06:08;;;;;;;;;;;23.90;66.90;;;;;;5097644;28;19928;-61
2023/08/20 09:08:35;;;;;;;;;;;23.90;66.70;;;;;;5107084;27;19935;-61
2023/08/20 09:11:02;;;;;;;;;;;23.90;66.30;;;;;;5108469;27;19930;-61
2023/08/20 09:13:35;;;;;;;;;;;23.90;65.80;;;;;;5120008;27;19923;-60
2023/08/20 09:16:04;;;;;;;;;;;23.90;65.30;;;;;;5082944;27;20062;-61
2023/08/20 09:18:30;;;;;;;;;;;23.80;65.10;;;;;;5095359;28;20373;-61
2023/08/20 09:20:58;;;;;;;;;;;23.80;65.00;;;;;;5116342;27;20004;-61
2023/08/20 09:23:24;;;;;;;;;;;23.80;65.00;;;;;;5091704;28;19932;-60
2023/08/20 09:25:51;;;;;;;;;;;23.80;64.90;;;;;;5094257;28;19923;-61
2023/08/20 09:28:18;;;;;;;;;;;23.80;64.90;;;;;;5090787;28;19931;-60
2023/08/20 09:30:57;;;;;;;;;;;23.80;65.00;;;;;;5100107;28;19981;-60
2023/08/20 09:33:24;;;;;;;;;;;23.80;65.00;;;;;;5090415;28;19981;-60
2023/08/20 09:35:50;;;;;;;;;;;23.80;65.10;;;;;;5096692;28;19923;-61
2023/08/20 09:38:19;;;;;;;;;;;23.80;65.20;;;;;;5092226;28;19935;-61
2023/08/20 09:40:46;;;;;;;;;;;23.80;65.20;;;;;;5113839;27;19924;-60
2023/08/20 09:43:13;;;;;;;;;;;23.80;65.30;;;;;;5091068;28;19985;-62
2023/08/20 09:45:39;;;;;;;;;;;23.80;65.20;;;;;;5107149;28;19932;-60
2023/08/20 09:48:08;;;;;;;;;;;23.80;65.20;;;;;;5114798;27;19977;-60
2023/08/20 09:50:36;;;;;;;;;;;23.80;65.20;;;;;;5101668;28;19936;-61
2023/08/20 09:53:04;;;;;;;;;;;23.80;65.30;;;;;;5100427;27;19932;-61
2023/08/20 09:55:32;;;;;;;;;;;23.80;65.40;;;;;;5119924;27;19924;-61
2023/08/20 09:58:00;;;;;;;;;;;23.80;65.50;;;;;;5098780;28;19923;-61
2023/08/20 10:00:26;;;;;;;;;;;23.80;65.50;;;;;;5096757;28;19923;-61
2023/08/20 10:02:53;;;;;;;;;;;23.80;65.50;;;;;;5110115;28;20454;-61
2023/08/20 10:05:22;;;;;;;;;;;23.80;65.50;;;;;;5100779;28;19927;-61
2023/08/20 10:07:48;;;;;;;;;;;23.80;65.60;;;;;;5113631;28;19931;-60
2023/08/20 10:10:16;;;;;;;;;;;23.90;65.80;;;;;;5082371;28;19984;-61
2023/08/20 10:12:43;;;;;;;;;;;23.80;65.60;;;;;;5132570;27;19923;-61
2023/08/20 10:15:10;;;;;;;;;;;23.90;65.80;;;;;;5128080;28;19946;-61
2023/08/20 10:17:38;;;;;;;;;;;23.90;65.80;;;;;;5113983;28;20031;-61
2023/08/20 10:20:05;;;;;;;;;;;23.80;65.60;;;;;;5097264;28;19924;-61
2023/08/20 10:22:37;;;;;;;;;;;23.80;65.40;;;;;;5128254;27;19959;-61
2023/08/20 10:25:06;;;;;;;;;;;23.90;65.50;;;;;;5122911;28;20023;-61
2023/08/20 10:27:34;;;;;;;;;;;23.90;65.50;;;;;;5101178;28;19969;-60
2023/08/20 10:30:01;;;;;;;;;;;23.90;65.60;;;;;;5088508;28;20482;-61
2023/08/20 10:32:47;;;;;;;;;;;23.90;65.60;;;;;;5093455;28;20630;-60
2023/08/20 10:35:14;;;;;;;;;;;23.90;65.50;;;;;;5121033;28;19976;-60
2023/08/20 10:37:42;;;;;;;;;;;23.90;65.60;;;;;;5100966;28;20030;-61
2023/08/20 10:40:09;;;;;;;;;;;23.90;65.60;;;;;;5089834;28;19927;-61
2023/08/20 10:42:42;;;;;;;;;;;23.90;65.60;;;;;;5096376;28;19930;-61
2023/08/20 10:45:09;;;;;;;;;;;23.90;65.60;;;;;;5112373;28;20315;-60
2023/08/20 10:47:42;;;;;;;;;;;23.90;65.50;;;;;;5106633;28;20018;-61
2023/08/20 10:50:10;;;;;;;;;;;23.90;66.30;;;;;;5090515;28;19928;-61
2023/08/20 10:52:39;;;;;;;;;;;23.90;65.50;;;;;;5123168;27;19931;-61
2023/08/20 10:55:07;;;;;;;;;;;23.90;65.50;;;;;;5092355;28;19928;-61
2023/08/20 10:57:34;;;;;;;;;;;23.90;65.50;;;;;;5100668;27;19936;-61
2023/08/20 11:00:05;;;;;;;;;;;23.90;65.40;;;;;;5128004;27;19984;-61
2023/08/20 11:02:32;;;;;;;;;;;24.00;65.30;;;;;;5095315;27;20355;-60
2023/08/20 11:04:58;;;;;;;;;;;24.00;65.30;;;;;;5100754;27;19927;-60
2023/08/20 11:07:27;;;;;;;;;;;24.00;65.30;;;;;;5103689;28;20407;-61
2023/08/20 11:09:54;;;;;;;;;;;24.00;65.30;;;;;;5108861;28;19951;-61
2023/08/20 11:12:23;;;;;;;;;;;24.00;65.20;;;;;;5122593;27;19931;-60
2023/08/20 11:14:50;;;;;;;;;;;24.00;65.20;;;;;;5092571;28;19993;-61
2023/08/20 11:17:16;;;;;;;;;;;24.00;65.10;;;;;;5100583;28;20508;-60
2023/08/20 11:19:43;;;;;;;;;;;24.00;65.10;;;;;;5117129;27;19928;-60
2023/08/20 11:22:10;;;;;;;;;;;24.00;64.90;;;;;;5099078;28;19923;-61
2023/08/20 11:24:38;;;;;;;;;;;24.00;64.80;;;;;;5097021;27;19927;-61
2023/08/20 11:27:05;;;;;;;;;;;24.10;64.80;;;;;;5103328;28;19927;-61
2023/08/20 11:29:34;;;;;;;;;;;24.10;64.80;;;;;;5100684;27;19973;-61
2023/08/20 11:32:03;;;;;;;;;;;24.10;64.80;;;;;;5118107;27;19938;-60
2023/08/20 11:34:29;;;;;;;;;;;24.10;64.80;;;;;;5117724;27;19969;-60
2023/08/20 11:36:56;;;;;;;;;;;24.10;64.80;;;;;;5105740;27;19935;-61
2023/08/20 11:39:24;;;;;;;;;;;24.10;64.70;;;;;;5098907;28;20015;-60
2023/08/20 11:41:50;;;;;;;;;;;24.10;64.70;;;;;;5100179;27;19928;-61
2023/08/20 11:44:20;;;;;;;;;;;24.10;64.60;;;;;;5127570;27;19931;-61
2023/08/20 11:46:48;;;;;;;;;;;24.10;64.50;;;;;;5104049;27;19955;-60
2023/08/20 11:49:15;;;;;;;;;;;24.10;64.60;;;;;;5107929;27;20409;-60
2023/08/20 11:51:42;;;;;;;;;;;24.10;64.50;;;;;;5109197;27;19923;-61
2023/08/20 11:54:09;;;;;;;;;;;24.10;64.40;;;;;;5100968;28;19927;-61
2023/08/20 11:56:38;;;;;;;;;;;24.20;64.50;;;;;;5095622;27;19969;-60
2023/08/20 11:59:05;;;;;;;;;;;24.10;64.30;;;;;;5104448;27;20023;-61
2023/08/20 12:01:32;;;;;;;;;;;24.20;64.50;;;;;;5122760;27;19976;-61
2023/08/20 12:04:02;;;;;;;;;;;24.20;64.40;;;;;;5100593;27;19968;-61
2023/08/20 12:06:30;;;;;;;;;;;24.20;64.30;;;;;;5108104;27;19972;-60
2023/08/20 12:08:57;;;;;;;;;;;24.20;64.40;;;;;;5100906;27;19932;-61
2023/08/20 12:11:24;;;;;;;;;;;24.20;64.30;;;;;;5111958;27;19932;-61
2023/08/20 12:13:51;;;;;;;;;;;24.20;64.30;;;;;;5111345;27;20312;-61
2023/08/20 12:16:18;;;;;;;;;;;24.20;64.30;;;;;;5123019;27;19924;-61
2023/08/20 12:18:46;;;;;;;;;;;24.20;64.40;;;;;;5128108;27;19928;-61
2023/08/20 12:21:15;;;;;;;;;;;24.20;64.40;;;;;;5103516;27;19924;-61
2023/08/20 12:23:42;;;;;;;;;;;24.20;64.40;;;;;;5120805;27;19928;-61
2023/08/20 12:26:08;;;;;;;;;;;24.20;64.40;;;;;;5104395;28;19923;-61
2023/08/20 12:28:35;;;;;;;;;;;24.20;64.50;;;;;;5103790;27;20373;-62
2023/08/20 12:31:02;;;;;;;;;;;24.20;64.60;;;;;;5110193;28;19969;-62
2023/08/20 12:33:29;;;;;;;;;;;24.20;64.70;;;;;;5128169;27;20002;-61
2023/08/20 12:35:56;;;;;;;;;;;24.20;64.70;;;;;;5107204;27;19927;-61
2023/08/20 12:38:24;;;;;;;;;;;24.20;64.70;;;;;;5099288;28;19928;-61
2023/08/20 12:40:51;;;;;;;;;;;24.20;64.80;;;;;;5103868;27;19923;-61
2023/08/20 12:43:18;;;;;;;;;;;24.20;64.90;;;;;;5115444;27;19927;-61
2023/08/20 12:45:44;;;;;;;;;;;24.20;64.90;;;;;;5101398;27;19924;-61
2023/08/20 12:48:11;;;;;;;;;;;24.20;64.90;;;;;;5100337;28;19928;-61
2023/08/20 12:50:38;;;;;;;;;;;24.20;65.00;;;;;;5109469;27;19934;-60
2023/08/20 12:53:05;;;;;;;;;;;24.20;65.00;;;;;;5101713;28;19924;-61
2023/08/20 12:55:33;;;;;;;;;;;24.20;65.10;;;;;;5102932;28;20357;-61
2023/08/20 12:57:59;;;;;;;;;;;24.20;65.00;;;;;;5108605;28;19928;-61
2023/08/20 13:00:26;;;;;;;;;;;24.20;65.10;;;;;;5091205;28;19931;-61
2023/08/20 13:02:54;;;;;;;;;;;24.20;65.20;;;;;;5102681;27;19924;-61
2023/08/20 13:05:21;;;;;;;;;;;24.20;65.10;;;;;;5106384;27;19941;-61
2023/08/20 13:07:48;;;;;;;;;;;24.20;65.10;;;;;;5103815;27;19996;-61
2023/08/20 13:10:15;;;;;;;;;;;24.30;65.20;;;;;;5103626;28;19967;-61
2023/08/20 13:12:44;;;;;;;;;;;24.30;65.30;;;;;;5111618;27;19939;-61
2023/08/20 13:15:11;;;;;;;;;;;24.30;65.30;;;;;;5124880;27;19923;-61
2023/08/20 13:17:38;;;;;;;;;;;24.30;65.30;;;;;;5094682;28;20369;-61
2023/08/20 13:20:07;;;;;;;;;;;24.30;65.30;;;;;;5107153;27;19972;-61
2023/08/20 13:22:33;;;;;;;;;;;24.30;65.30;;;;;;5105876;27;19950;-61
2023/08/20 13:25:00;;;;;;;;;;;24.30;65.30;;;;;;5096632;28;19962;-61
2023/08/20 13:27:27;;;;;;;;;;;24.30;65.30;;;;;;5120704;27;20145;-61
2023/08/20 13:29:55;;;;;;;;;;;24.30;65.20;;;;;;5132077;27;19945;-61
2023/08/20 13:32:22;;;;;;;;;;;24.30;65.20;;;;;;5123494;27;20370;-61
2023/08/20 13:34:49;;;;;;;;;;;24.30;65.20;;;;;;5118973;27;19935;-61
2023/08/20 13:37:17;;;;;;;;;;;24.30;65.10;;;;;;5119733;27;19976;-61
2023/08/20 13:39:43;;;;;;;;;;;24.30;65.00;;;;;;5108148;27;19950;-60
2023/08/20 13:42:10;;;;;;;;;;;24.30;65.10;;;;;;5116680;27;19924;-61
2023/08/20 13:44:37;;;;;;;;;;;24.30;65.10;;;;;;5117268;27;19924;-61
2023/08/20 13:47:05;;;;;;;;;;;24.30;65.00;;;;;;5099639;28;19935;-61
2023/08/20 13:49:32;;;;;;;;;;;24.30;65.00;;;;;;5109891;27;19931;-61
2023/08/20 13:51:59;;;;;;;;;;;24.30;65.20;;;;;;5098557;27;19927;-61
2023/08/20 13:54:26;;;;;;;;;;;24.30;65.10;;;;;;5093594;28;19933;-62
2023/08/20 13:56:52;;;;;;;;;;;24.30;65.00;;;;;;5109279;28;19962;-61
2023/08/20 13:59:19;;;;;;;;;;;24.30;65.00;;;;;;5109316;28;19928;-61
2023/08/20 14:01:46;;;;;;;;;;;24.30;65.00;;;;;;5112572;28;19928;-60
2023/08/20 14:04:14;;;;;;;;;;;24.30;65.00;;;;;;5094437;28;19930;-62
2023/08/20 14:06:41;;;;;;;;;;;24.30;65.00;;;;;;5091573;28;19924;-61
2023/08/20 14:09:08;;;;;;;;;;;24.30;65.00;;;;;;5107388;28;19934;-61
2023/08/20 14:11:35;;;;;;;;;;;24.30;65.00;;;;;;5096527;28;19924;-61
2023/08/20 14:14:01;;;;;;;;;;;24.30;65.00;;;;;;5096510;28;19923;-61
2023/08/20 14:16:28;;;;;;;;;;;24.30;65.00;;;;;;5112621;28;20355;-61